sensor_id;sensor_type;location;lat;lon;timestamp;temperature;humidity
7530;DHT22;3806;52.270;10.544;2023-05-07T00:00:08;10.90;99.90
7530;DHT22;3806;52.270;10.544;2023-05-07T00:02:34;10.90;99.90
7530;DHT22;3806;52.270;10.544;2023-05-07T00:05:01;10.90;99.90
7530;DHT22;3806;52.270;10.544;2023-05-07T00:07:27;10.90;99.90
7530;DHT22;3806;52.270;10.544;2023-05-07T00:09:53;10.90;99.90
7530;DHT22;3806;52.270;10.544;2023-05-07T00:12:18;10.80;99.90
7530;DHT22;3806;52.270;10.544;2023-05-07T00:14:44;10.80;99.90
7530;DHT22;3806;52.270;10.544;2023-05-07T00:17:10;10.90;99.90
7530;DHT22;3806;52.270;10.544;2023-05-07T00:19:36;10.90;99.90
7530;DHT22;3806;52.270;10.544;2023-05-07T00:22:02;10.90;99.90
7530;DHT22;3806;52.270;10.544;2023-05-07T00:24:27;10.90;99.90
7530;DHT22;3806;52.270;10.544;2023-05-07T00:26:53;10.80;99.90
7530;DHT22;3806;52.270;10.544;2023-05-07T00:29:18;10.80;99.90
7530;DHT22;3806;52.270;10.544;2023-05-07T00:31:44;10.80;99.90
7530;DHT22;3806;52.270;10.544;2023-05-07T00:34:09;10.90;99.90
7530;DHT22;3806;52.270;10.544;2023-05-07T00:36:35;10.90;99.90
7530;DHT22;3806;52.270;10.544;2023-05-07T00:39:01;10.90;99.90
7530;DHT22;3806;52.270;10.544;2023-05-07T00:41:29;10.90;99.90
7530;DHT22;3806;52.270;10.544;2023-05-07T00:43:56;11.00;99.90
7530;DHT22;3806;52.270;10.544;2023-05-07T00:46:22;11.00;99.90
7530;DHT22;3806;52.270;10.544;2023-05-07T00:48:48;10.90;99.90
7530;DHT22;3806;52.270;10.544;2023-05-07T00:51:15;10.90;99.90
7530;DHT22;3806;52.270;10.544;2023-05-07T00:53:41;10.90;99.90
7530;DHT22;3806;52.270;10.544;2023-05-07T00:56:06;10.90;99.90
7530;DHT22;3806;52.270;10.544;2023-05-07T00:58:33;10.80;99.90
7530;DHT22;3806;52.270;10.544;2023-05-07T01:00:59;10.90;99.90
7530;DHT22;3806;52.270;10.544;2023-05-07T01:03:25;10.90;99.90
7530;DHT22;3806;52.270;10.544;2023-05-07T01:05:52;10.90;99.90
7530;DHT22;3806;52.270;10.544;2023-05-07T01:08:18;10.90;99.90
7530;DHT22;3806;52.270;10.544;2023-05-07T01:10:44;11.00;99.90
7530;DHT22;3806;52.270;10.544;2023-05-07T01:13:11;10.90;99.90
7530;DHT22;3806;52.270;10.544;2023-05-07T01:15:37;10.80;99.90
7530;DHT22;3806;52.270;10.544;2023-05-07T01:18:03;10.80;99.90
7530;DHT22;3806;52.270;10.544;2023-05-07T01:20:30;10.90;99.90
7530;DHT22;3806;52.270;10.544;2023-05-07T01:22:56;10.90;99.90
7530;DHT22;3806;52.270;10.544;2023-05-07T01:25:22;10.80;99.90
7530;DHT22;3806;52.270;10.544;2023-05-07T01:27:48;10.80;99.90
7530;DHT22;3806;52.270;10.544;2023-05-07T01:30:14;10.80;99.90
7530;DHT22;3806;52.270;10.544;2023-05-07T01:32:43;10.80;99.90
7530;DHT22;3806;52.270;10.544;2023-05-07T01:35:18;10.70;99.90
7530;DHT22;3806;52.270;10.544;2023-05-07T01:37:44;10.70;99.90
7530;DHT22;3806;52.270;10.544;2023-05-07T01:40:10;10.70;99.90
7530;DHT22;3806;52.270;10.544;2023-05-07T01:42:36;10.60;99.90
7530;DHT22;3806;52.270;10.544;2023-05-07T01:45:02;10.60;99.90
7530;DHT22;3806;52.270;10.544;2023-05-07T01:47:28;10.60;99.90
7530;DHT22;3806;52.270;10.544;2023-05-07T01:49:55;10.60;99.90
7530;DHT22;3806;52.270;10.544;2023-05-07T01:52:20;10.60;99.90
7530;DHT22;3806;52.270;10.544;2023-05-07T01:54:46;10.60;99.90
7530;DHT22;3806;52.270;10.544;2023-05-07T01:57:12;10.60;99.90
7530;DHT22;3806;52.270;10.544;2023-05-07T01:59:37;10.60;99.90
7530;DHT22;3806;52.270;10.544;2023-05-07T02:02:03;10.50;99.90
7530;DHT22;3806;52.270;10.544;2023-05-07T02:04:28;10.60;99.90
7530;DHT22;3806;52.270;10.544;2023-05-07T02:06:54;10.40;99.90
7530;DHT22;3806;52.270;10.544;2023-05-07T02:09:19;10.40;99.90
7530;DHT22;3806;52.270;10.544;2023-05-07T02:11:45;10.40;99.90
7530;DHT22;3806;52.270;10.544;2023-05-07T02:14:10;10.50;99.90
7530;DHT22;3806;52.270;10.544;2023-05-07T02:16:36;10.40;99.90
7530;DHT22;3806;52.270;10.544;2023-05-07T02:19:01;10.40;99.90
7530;DHT22;3806;52.270;10.544;2023-05-07T02:21:27;10.40;99.90
7530;DHT22;3806;52.270;10.544;2023-05-07T02:23:53;10.40;99.90
7530;DHT22;3806;52.270;10.544;2023-05-07T02:26:19;10.30;99.90
7530;DHT22;3806;52.270;10.544;2023-05-07T02:28:44;10.30;99.90
7530;DHT22;3806;52.270;10.544;2023-05-07T02:31:10;10.30;99.90
7530;DHT22;3806;52.270;10.544;2023-05-07T02:33:35;10.30;99.90
7530;DHT22;3806;52.270;10.544;2023-05-07T02:36:12;10.30;99.90
7530;DHT22;3806;52.270;10.544;2023-05-07T02:38:37;10.30;99.90
7530;DHT22;3806;52.270;10.544;2023-05-07T02:41:03;10.30;99.90
7530;DHT22;3806;52.270;10.544;2023-05-07T02:43:28;10.20;99.90
7530;DHT22;3806;52.270;10.544;2023-05-07T02:46:02;10.20;99.90
7530;DHT22;3806;52.270;10.544;2023-05-07T02:48:28;10.20;99.90
7530;DHT22;3806;52.270;10.544;2023-05-07T02:50:53;10.30;99.90
7530;DHT22;3806;52.270;10.544;2023-05-07T02:53:19;10.20;99.90
7530;DHT22;3806;52.270;10.544;2023-05-07T02:55:44;10.30;99.90
7530;DHT22;3806;52.270;10.544;2023-05-07T02:58:10;10.20;99.90
7530;DHT22;3806;52.270;10.544;2023-05-07T03:00:35;10.20;99.90
7530;DHT22;3806;52.270;10.544;2023-05-07T03:03:01;10.20;99.90
7530;DHT22;3806;52.270;10.544;2023-05-07T03:05:27;10.20;99.90
7530;DHT22;3806;52.270;10.544;2023-05-07T03:07:52;10.30;99.90
7530;DHT22;3806;52.270;10.544;2023-05-07T03:10:18;10.30;99.90
7530;DHT22;3806;52.270;10.544;2023-05-07T03:12:44;10.30;99.90
7530;DHT22;3806;52.270;10.544;2023-05-07T03:15:10;10.30;99.90
7530;DHT22;3806;52.270;10.544;2023-05-07T03:17:37;10.30;99.90
7530;DHT22;3806;52.270;10.544;2023-05-07T03:20:04;10.30;99.90
7530;DHT22;3806;52.270;10.544;2023-05-07T03:22:29;10.30;99.90
7530;DHT22;3806;52.270;10.544;2023-05-07T03:24:55;10.20;99.90
7530;DHT22;3806;52.270;10.544;2023-05-07T03:27:20;10.10;99.90
7530;DHT22;3806;52.270;10.544;2023-05-07T03:29:46;10.20;99.90
7530;DHT22;3806;52.270;10.544;2023-05-07T03:32:11;10.20;99.90
7530;DHT22;3806;52.270;10.544;2023-05-07T03:34:37;10.10;99.90
7530;DHT22;3806;52.270;10.544;2023-05-07T03:37:02;10.20;99.90
7530;DHT22;3806;52.270;10.544;2023-05-07T03:39:28;10.20;99.90
7530;DHT22;3806;52.270;10.544;2023-05-07T03:41:54;10.20;99.90
7530;DHT22;3806;52.270;10.544;2023-05-07T03:44:19;10.10;99.90
7530;DHT22;3806;52.270;10.544;2023-05-07T03:46:45;10.10;99.90
7530;DHT22;3806;52.270;10.544;2023-05-07T03:49:10;10.10;99.90
7530;DHT22;3806;52.270;10.544;2023-05-07T03:51:36;10.10;99.90
7530;DHT22;3806;52.270;10.544;2023-05-07T03:54:02;10.10;99.90
7530;DHT22;3806;52.270;10.544;2023-05-07T03:56:27;10.10;99.90
7530;DHT22;3806;52.270;10.544;2023-05-07T03:58:53;10.10;99.90
7530;DHT22;3806;52.270;10.544;2023-05-07T04:01:19;10.10;99.90
7530;DHT22;3806;52.270;10.544;2023-05-07T04:03:44;10.10;99.90
7530;DHT22;3806;52.270;10.544;2023-05-07T04:06:10;10.10;99.90
7530;DHT22;3806;52.270;10.544;2023-05-07T04:08:35;10.10;99.90
7530;DHT22;3806;52.270;10.544;2023-05-07T04:11:01;10.00;99.90
7530;DHT22;3806;52.270;10.544;2023-05-07T04:13:27;10.00;99.90
7530;DHT22;3806;52.270;10.544;2023-05-07T04:15:54;10.10;99.90
7530;DHT22;3806;52.270;10.544;2023-05-07T04:18:20;10.00;99.90
7530;DHT22;3806;52.270;10.544;2023-05-07T04:20:47;10.00;99.90
7530;DHT22;3806;52.270;10.544;2023-05-07T04:23:13;10.00;99.90
7530;DHT22;3806;52.270;10.544;2023-05-07T04:25:38;10.00;99.90
7530;DHT22;3806;52.270;10.544;2023-05-07T04:28:04;10.10;99.90
7530;DHT22;3806;52.270;10.544;2023-05-07T04:30:29;10.10;99.90
7530;DHT22;3806;52.270;10.544;2023-05-07T04:32:55;10.20;99.90
7530;DHT22;3806;52.270;10.544;2023-05-07T04:35:21;10.20;99.90
7530;DHT22;3806;52.270;10.544;2023-05-07T04:37:47;10.30;99.90
7530;DHT22;3806;52.270;10.544;2023-05-07T04:40:13;10.30;99.90
7530;DHT22;3806;52.270;10.544;2023-05-07T04:42:38;10.30;99.90
7530;DHT22;3806;52.270;10.544;2023-05-07T04:45:04;10.30;99.90
7530;DHT22;3806;52.270;10.544;2023-05-07T04:47:30;10.30;99.90
7530;DHT22;3806;52.270;10.544;2023-05-07T04:49:57;10.30;99.90
7530;DHT22;3806;52.270;10.544;2023-05-07T04:52:22;10.40;99.90
7530;DHT22;3806;52.270;10.544;2023-05-07T04:54:48;10.30;99.90
7530;DHT22;3806;52.270;10.544;2023-05-07T04:57:13;10.30;99.90
7530;DHT22;3806;52.270;10.544;2023-05-07T04:59:39;10.30;99.90
7530;DHT22;3806;52.270;10.544;2023-05-07T05:02:04;10.30;99.90
7530;DHT22;3806;52.270;10.544;2023-05-07T05:04:30;10.40;99.90
7530;DHT22;3806;52.270;10.544;2023-05-07T05:06:56;10.50;99.90
7530;DHT22;3806;52.270;10.544;2023-05-07T05:09:21;10.50;99.90
7530;DHT22;3806;52.270;10.544;2023-05-07T05:11:47;10.50;99.90
7530;DHT22;3806;52.270;10.544;2023-05-07T05:14:13;10.50;99.90
7530;DHT22;3806;52.270;10.544;2023-05-07T05:16:38;10.50;99.90
7530;DHT22;3806;52.270;10.544;2023-05-07T05:19:04;10.50;99.90
7530;DHT22;3806;52.270;10.544;2023-05-07T05:21:30;10.50;99.90
7530;DHT22;3806;52.270;10.544;2023-05-07T05:23:56;10.50;99.90
7530;DHT22;3806;52.270;10.544;2023-05-07T05:26:21;10.50;99.90
7530;DHT22;3806;52.270;10.544;2023-05-07T05:28:47;10.60;99.90
7530;DHT22;3806;52.270;10.544;2023-05-07T05:31:12;10.60;99.90
7530;DHT22;3806;52.270;10.544;2023-05-07T05:33:39;10.50;99.90
7530;DHT22;3806;52.270;10.544;2023-05-07T05:36:05;10.60;99.90
7530;DHT22;3806;52.270;10.544;2023-05-07T05:38:31;10.70;99.90
7530;DHT22;3806;52.270;10.544;2023-05-07T05:40:57;10.60;99.90
7530;DHT22;3806;52.270;10.544;2023-05-07T05:43:22;10.60;99.90
7530;DHT22;3806;52.270;10.544;2023-05-07T05:45:48;10.60;99.90
7530;DHT22;3806;52.270;10.544;2023-05-07T05:48:14;10.60;99.90
7530;DHT22;3806;52.270;10.544;2023-05-07T05:50:39;10.60;99.90
7530;DHT22;3806;52.270;10.544;2023-05-07T05:53:05;10.60;99.90
7530;DHT22;3806;52.270;10.544;2023-05-07T05:55:30;10.60;99.90
7530;DHT22;3806;52.270;10.544;2023-05-07T05:57:58;10.60;99.90
7530;DHT22;3806;52.270;10.544;2023-05-07T06:00:23;10.60;99.90
7530;DHT22;3806;52.270;10.544;2023-05-07T06:02:49;10.60;99.90
7530;DHT22;3806;52.270;10.544;2023-05-07T06:05:15;10.60;99.90
7530;DHT22;3806;52.270;10.544;2023-05-07T06:07:40;10.50;99.90
7530;DHT22;3806;52.270;10.544;2023-05-07T06:10:06;10.60;99.90
7530;DHT22;3806;52.270;10.544;2023-05-07T06:12:32;10.70;99.90
7530;DHT22;3806;52.270;10.544;2023-05-07T06:14:58;10.60;99.90
7530;DHT22;3806;52.270;10.544;2023-05-07T06:17:23;10.70;99.90
7530;DHT22;3806;52.270;10.544;2023-05-07T06:19:49;10.70;99.90
7530;DHT22;3806;52.270;10.544;2023-05-07T06:22:14;10.80;99.90
7530;DHT22;3806;52.270;10.544;2023-05-07T06:24:40;10.80;99.90
7530;DHT22;3806;52.270;10.544;2023-05-07T06:27:05;10.90;99.90
7530;DHT22;3806;52.270;10.544;2023-05-07T06:29:31;10.90;99.90
7530;DHT22;3806;52.270;10.544;2023-05-07T06:32:09;11.00;99.90
7530;DHT22;3806;52.270;10.544;2023-05-07T06:34:35;11.00;99.90
7530;DHT22;3806;52.270;10.544;2023-05-07T06:37:01;11.10;99.90
7530;DHT22;3806;52.270;10.544;2023-05-07T06:39:26;11.10;99.90
7530;DHT22;3806;52.270;10.544;2023-05-07T06:41:52;11.10;99.90
7530;DHT22;3806;52.270;10.544;2023-05-07T06:44:18;11.20;99.90
7530;DHT22;3806;52.270;10.544;2023-05-07T06:46:44;11.10;99.90
7530;DHT22;3806;52.270;10.544;2023-05-07T06:49:12;11.10;99.90
7530;DHT22;3806;52.270;10.544;2023-05-07T06:51:38;11.20;99.90
7530;DHT22;3806;52.270;10.544;2023-05-07T06:54:03;11.20;99.90
7530;DHT22;3806;52.270;10.544;2023-05-07T06:56:30;11.20;99.90
7530;DHT22;3806;52.270;10.544;2023-05-07T06:58:56;11.20;99.90
7530;DHT22;3806;52.270;10.544;2023-05-07T07:01:21;11.30;99.90
7530;DHT22;3806;52.270;10.544;2023-05-07T07:03:47;11.30;99.90
7530;DHT22;3806;52.270;10.544;2023-05-07T07:06:12;11.40;99.90
7530;DHT22;3806;52.270;10.544;2023-05-07T07:08:38;11.40;99.90
7530;DHT22;3806;52.270;10.544;2023-05-07T07:11:05;11.40;99.90
7530;DHT22;3806;52.270;10.544;2023-05-07T07:13:30;11.40;99.90
7530;DHT22;3806;52.270;10.544;2023-05-07T07:15:56;11.40;99.90
7530;DHT22;3806;52.270;10.544;2023-05-07T07:18:21;11.20;99.90
7530;DHT22;3806;52.270;10.544;2023-05-07T07:20:47;11.50;99.90
7530;DHT22;3806;52.270;10.544;2023-05-07T07:23:13;11.40;99.90
7530;DHT22;3806;52.270;10.544;2023-05-07T07:25:38;11.40;99.90
7530;DHT22;3806;52.270;10.544;2023-05-07T07:28:04;11.30;99.90
7530;DHT22;3806;52.270;10.544;2023-05-07T07:30:30;11.20;99.90
7530;DHT22;3806;52.270;10.544;2023-05-07T07:32:55;11.30;99.90
7530;DHT22;3806;52.270;10.544;2023-05-07T07:35:28;11.20;99.90
7530;DHT22;3806;52.270;10.544;2023-05-07T07:37:53;11.20;99.90
7530;DHT22;3806;52.270;10.544;2023-05-07T07:40:19;11.10;99.90
7530;DHT22;3806;52.270;10.544;2023-05-07T07:42:44;11.10;99.90
7530;DHT22;3806;52.270;10.544;2023-05-07T07:45:10;11.20;99.90
7530;DHT22;3806;52.270;10.544;2023-05-07T07:47:36;11.30;99.90
7530;DHT22;3806;52.270;10.544;2023-05-07T07:50:01;11.30;99.90
7530;DHT22;3806;52.270;10.544;2023-05-07T07:52:27;11.30;99.90
7530;DHT22;3806;52.270;10.544;2023-05-07T07:54:52;11.30;99.90
7530;DHT22;3806;52.270;10.544;2023-05-07T07:57:18;11.30;99.90
7530;DHT22;3806;52.270;10.544;2023-05-07T07:59:43;11.50;99.90
7530;DHT22;3806;52.270;10.544;2023-05-07T08:02:09;11.50;99.90
7530;DHT22;3806;52.270;10.544;2023-05-07T08:04:35;11.40;99.90
7530;DHT22;3806;52.270;10.544;2023-05-07T08:07:02;11.50;99.90
7530;DHT22;3806;52.270;10.544;2023-05-07T08:09:27;11.60;99.90
7530;DHT22;3806;52.270;10.544;2023-05-07T08:11:53;11.60;99.90
7530;DHT22;3806;52.270;10.544;2023-05-07T08:14:19;11.70;99.90
7530;DHT22;3806;52.270;10.544;2023-05-07T08:16:44;11.70;99.90
7530;DHT22;3806;52.270;10.544;2023-05-07T08:19:10;11.80;99.90
7530;DHT22;3806;52.270;10.544;2023-05-07T08:21:39;11.90;99.90
7530;DHT22;3806;52.270;10.544;2023-05-07T08:24:05;12.00;99.90
7530;DHT22;3806;52.270;10.544;2023-05-07T08:26:31;12.00;99.90
7530;DHT22;3806;52.270;10.544;2023-05-07T08:28:56;12.00;99.90
7530;DHT22;3806;52.270;10.544;2023-05-07T08:31:22;12.10;99.90
7530;DHT22;3806;52.270;10.544;2023-05-07T08:33:48;12.20;99.90
7530;DHT22;3806;52.270;10.544;2023-05-07T08:36:14;12.20;99.90
7530;DHT22;3806;52.270;10.544;2023-05-07T08:38:40;12.20;99.90
7530;DHT22;3806;52.270;10.544;2023-05-07T08:41:10;12.10;99.90
7530;DHT22;3806;52.270;10.544;2023-05-07T08:43:36;12.10;99.90
7530;DHT22;3806;52.270;10.544;2023-05-07T08:46:04;12.20;99.90
7530;DHT22;3806;52.270;10.544;2023-05-07T08:48:31;12.20;99.90
7530;DHT22;3806;52.270;10.544;2023-05-07T08:50:58;12.30;99.90
7530;DHT22;3806;52.270;10.544;2023-05-07T08:53:24;12.40;99.90
7530;DHT22;3806;52.270;10.544;2023-05-07T08:55:50;12.50;99.90
7530;DHT22;3806;52.270;10.544;2023-05-07T08:58:16;12.50;99.90
7530;DHT22;3806;52.270;10.544;2023-05-07T09:00:42;12.60;99.90
7530;DHT22;3806;52.270;10.544;2023-05-07T09:03:07;12.70;99.90
7530;DHT22;3806;52.270;10.544;2023-05-07T09:05:33;12.80;99.90
7530;DHT22;3806;52.270;10.544;2023-05-07T09:08:04;12.80;99.90
7530;DHT22;3806;52.270;10.544;2023-05-07T09:10:33;12.80;99.90
7530;DHT22;3806;52.270;10.544;2023-05-07T09:12:59;12.90;99.90
7530;DHT22;3806;52.270;10.544;2023-05-07T09:15:24;13.00;99.90
7530;DHT22;3806;52.270;10.544;2023-05-07T09:17:50;13.00;99.70
7530;DHT22;3806;52.270;10.544;2023-05-07T09:20:16;13.20;99.20
7530;DHT22;3806;52.270;10.544;2023-05-07T09:22:42;13.20;99.10
7530;DHT22;3806;52.270;10.544;2023-05-07T09:25:09;13.10;99.20
7530;DHT22;3806;52.270;10.544;2023-05-07T09:27:35;13.20;99.30
7530;DHT22;3806;52.270;10.544;2023-05-07T09:30:07;13.30;99.10
7530;DHT22;3806;52.270;10.544;2023-05-07T09:32:37;13.30;99.00
7530;DHT22;3806;52.270;10.544;2023-05-07T09:35:03;13.30;99.00
7530;DHT22;3806;52.270;10.544;2023-05-07T09:37:31;13.40;99.10
7530;DHT22;3806;52.270;10.544;2023-05-07T09:39:56;13.40;98.50
7530;DHT22;3806;52.270;10.544;2023-05-07T09:42:25;13.50;97.90
7530;DHT22;3806;52.270;10.544;2023-05-07T09:44:52;13.50;98.50
7530;DHT22;3806;52.270;10.544;2023-05-07T09:47:19;13.80;97.90
7530;DHT22;3806;52.270;10.544;2023-05-07T09:49:47;14.10;96.60
7530;DHT22;3806;52.270;10.544;2023-05-07T09:52:14;14.30;96.00
7530;DHT22;3806;52.270;10.544;2023-05-07T09:54:40;14.50;95.20
7530;DHT22;3806;52.270;10.544;2023-05-07T09:57:10;14.60;94.50
7530;DHT22;3806;52.270;10.544;2023-05-07T09:59:37;14.60;94.20
7530;DHT22;3806;52.270;10.544;2023-05-07T10:02:04;14.50;94.50
7530;DHT22;3806;52.270;10.544;2023-05-07T10:04:31;14.50;94.70
7530;DHT22;3806;52.270;10.544;2023-05-07T10:06:57;14.50;94.90
7530;DHT22;3806;52.270;10.544;2023-05-07T10:09:25;14.60;94.30
7530;DHT22;3806;52.270;10.544;2023-05-07T10:11:52;14.60;94.60
7530;DHT22;3806;52.270;10.544;2023-05-07T10:14:20;14.80;95.10
7530;DHT22;3806;52.270;10.544;2023-05-07T10:16:47;15.10;94.30
7530;DHT22;3806;52.270;10.544;2023-05-07T10:19:14;15.40;94.00
7530;DHT22;3806;52.270;10.544;2023-05-07T10:21:51;15.50;92.80
7530;DHT22;3806;52.270;10.544;2023-05-07T10:24:25;15.50;92.20
7530;DHT22;3806;52.270;10.544;2023-05-07T10:26:52;15.30;92.60
7530;DHT22;3806;52.270;10.544;2023-05-07T10:34:37;14.60;94.10
7530;DHT22;3806;52.270;10.544;2023-05-07T10:37:04;14.40;94.50
7530;DHT22;3806;52.270;10.544;2023-05-07T10:39:30;14.10;95.20
7530;DHT22;3806;52.270;10.544;2023-05-07T10:41:56;14.10;95.60
7530;DHT22;3806;52.270;10.544;2023-05-07T10:44:29;13.90;96.20
7530;DHT22;3806;52.270;10.544;2023-05-07T10:47:08;13.80;96.60
7530;DHT22;3806;52.270;10.544;2023-05-07T10:52:22;13.90;97.00
7530;DHT22;3806;52.270;10.544;2023-05-07T10:57:42;13.90;96.80
7530;DHT22;3806;52.270;10.544;2023-05-07T11:05:28;13.70;95.80
7530;DHT22;3806;52.270;10.544;2023-05-07T11:07:55;13.80;96.10
7530;DHT22;3806;52.270;10.544;2023-05-07T11:10:22;13.90;95.80
7530;DHT22;3806;52.270;10.544;2023-05-07T11:12:49;13.90;95.60
7530;DHT22;3806;52.270;10.544;2023-05-07T11:15:33;14.00;95.90
7530;DHT22;3806;52.270;10.544;2023-05-07T11:17:59;14.00;95.90
7530;DHT22;3806;52.270;10.544;2023-05-07T11:20:56;14.20;96.20
7530;DHT22;3806;52.270;10.544;2023-05-07T11:26:15;14.60;95.00
7530;DHT22;3806;52.270;10.544;2023-05-07T11:28:42;14.80;94.80
7530;DHT22;3806;52.270;10.544;2023-05-07T11:31:09;15.00;94.30
7530;DHT22;3806;52.270;10.544;2023-05-07T11:33:35;15.10;93.40
7530;DHT22;3806;52.270;10.544;2023-05-07T11:36:05;15.20;93.30
7530;DHT22;3806;52.270;10.544;2023-05-07T11:38:34;15.10;93.40
7530;DHT22;3806;52.270;10.544;2023-05-07T11:41:00;15.20;92.80
7530;DHT22;3806;52.270;10.544;2023-05-07T11:43:31;15.10;92.60
7530;DHT22;3806;52.270;10.544;2023-05-07T11:46:09;15.00;92.80
7530;DHT22;3806;52.270;10.544;2023-05-07T11:48:35;15.00;92.80
7530;DHT22;3806;52.270;10.544;2023-05-07T11:51:01;14.80;93.20
7530;DHT22;3806;52.270;10.544;2023-05-07T11:53:28;14.70;93.90
7530;DHT22;3806;52.270;10.544;2023-05-07T11:55:55;14.60;94.50
7530;DHT22;3806;52.270;10.544;2023-05-07T11:58:22;14.60;94.50
7530;DHT22;3806;52.270;10.544;2023-05-07T12:00:49;14.50;94.80
7530;DHT22;3806;52.270;10.544;2023-05-07T12:03:15;14.50;94.90
7530;DHT22;3806;52.270;10.544;2023-05-07T12:05:40;14.50;95.00
7530;DHT22;3806;52.270;10.544;2023-05-07T12:08:07;14.50;94.90
7530;DHT22;3806;52.270;10.544;2023-05-07T12:10:33;14.50;94.70
7530;DHT22;3806;52.270;10.544;2023-05-07T12:12:58;14.50;94.60
7530;DHT22;3806;52.270;10.544;2023-05-07T12:15:24;14.50;94.50
7530;DHT22;3806;52.270;10.544;2023-05-07T12:17:50;14.40;94.90
7530;DHT22;3806;52.270;10.544;2023-05-07T12:20:16;14.30;95.10
7530;DHT22;3806;52.270;10.544;2023-05-07T12:22:42;14.40;95.10
7530;DHT22;3806;52.270;10.544;2023-05-07T12:25:08;14.30;95.00
7530;DHT22;3806;52.270;10.544;2023-05-07T12:27:37;14.30;95.00
7530;DHT22;3806;52.270;10.544;2023-05-07T12:30:03;14.20;95.40
7530;DHT22;3806;52.270;10.544;2023-05-07T12:32:29;14.10;95.80
7530;DHT22;3806;52.270;10.544;2023-05-07T12:34:55;14.10;95.60
7530;DHT22;3806;52.270;10.544;2023-05-07T12:37:24;14.10;95.70
7530;DHT22;3806;52.270;10.544;2023-05-07T12:40:07;14.00;95.80
7530;DHT22;3806;52.270;10.544;2023-05-07T12:42:35;14.10;95.90
7530;DHT22;3806;52.270;10.544;2023-05-07T12:45:11;14.00;95.80
7530;DHT22;3806;52.270;10.544;2023-05-07T12:47:36;14.10;96.10
7530;DHT22;3806;52.270;10.544;2023-05-07T12:50:05;14.10;96.30
7530;DHT22;3806;52.270;10.544;2023-05-07T12:52:31;14.20;96.30
7530;DHT22;3806;52.270;10.544;2023-05-07T12:55:04;14.30;95.70
7530;DHT22;3806;52.270;10.544;2023-05-07T12:57:31;14.30;95.40
7530;DHT22;3806;52.270;10.544;2023-05-07T13:00:03;14.30;95.60
7530;DHT22;3806;52.270;10.544;2023-05-07T13:02:38;14.40;95.20
7530;DHT22;3806;52.270;10.544;2023-05-07T13:05:04;14.40;95.40
7530;DHT22;3806;52.270;10.544;2023-05-07T13:07:29;14.50;95.70
7530;DHT22;3806;52.270;10.544;2023-05-07T13:09:55;14.60;95.70
7530;DHT22;3806;52.270;10.544;2023-05-07T13:12:21;14.80;95.50
7530;DHT22;3806;52.270;10.544;2023-05-07T13:14:46;14.90;95.20
7530;DHT22;3806;52.270;10.544;2023-05-07T13:17:12;15.00;95.00
7530;DHT22;3806;52.270;10.544;2023-05-07T13:19:37;15.10;94.60
7530;DHT22;3806;52.270;10.544;2023-05-07T13:22:03;15.10;94.50
7530;DHT22;3806;52.270;10.544;2023-05-07T13:24:29;15.10;94.20
7530;DHT22;3806;52.270;10.544;2023-05-07T13:26:55;15.10;94.20
7530;DHT22;3806;52.270;10.544;2023-05-07T13:29:20;15.20;93.00
7530;DHT22;3806;52.270;10.544;2023-05-07T13:31:50;15.30;93.00
7530;DHT22;3806;52.270;10.544;2023-05-07T13:34:16;15.30;92.80
7530;DHT22;3806;52.270;10.544;2023-05-07T13:36:41;15.40;92.50
7530;DHT22;3806;52.270;10.544;2023-05-07T13:39:07;15.40;92.60
7530;DHT22;3806;52.270;10.544;2023-05-07T13:41:34;15.50;92.70
7530;DHT22;3806;52.270;10.544;2023-05-07T13:43:59;15.60;92.30
7530;DHT22;3806;52.270;10.544;2023-05-07T13:46:25;15.60;91.60
7530;DHT22;3806;52.270;10.544;2023-05-07T13:48:51;15.70;91.90
7530;DHT22;3806;52.270;10.544;2023-05-07T13:51:16;15.80;91.60
7530;DHT22;3806;52.270;10.544;2023-05-07T13:53:42;15.80;91.10
7530;DHT22;3806;52.270;10.544;2023-05-07T13:56:08;15.80;91.60
7530;DHT22;3806;52.270;10.544;2023-05-07T13:58:33;15.80;91.70
7530;DHT22;3806;52.270;10.544;2023-05-07T14:00:59;15.70;91.50
7530;DHT22;3806;52.270;10.544;2023-05-07T14:03:25;15.70;91.40
7530;DHT22;3806;52.270;10.544;2023-05-07T14:05:50;15.80;91.60
7530;DHT22;3806;52.270;10.544;2023-05-07T14:08:16;15.80;91.30
7530;DHT22;3806;52.270;10.544;2023-05-07T14:10:45;15.90;91.00
7530;DHT22;3806;52.270;10.544;2023-05-07T14:13:11;15.90;90.90
7530;DHT22;3806;52.270;10.544;2023-05-07T14:15:37;16.00;91.00
7530;DHT22;3806;52.270;10.544;2023-05-07T14:18:03;16.00;91.00
7530;DHT22;3806;52.270;10.544;2023-05-07T14:20:28;16.10;90.80
7530;DHT22;3806;52.270;10.544;2023-05-07T14:22:56;16.20;89.60
7530;DHT22;3806;52.270;10.544;2023-05-07T14:25:21;16.30;89.60
7530;DHT22;3806;52.270;10.544;2023-05-07T14:27:47;16.30;89.70
7530;DHT22;3806;52.270;10.544;2023-05-07T14:30:13;16.20;88.30
7530;DHT22;3806;52.270;10.544;2023-05-07T14:32:38;16.10;88.70
7530;DHT22;3806;52.270;10.544;2023-05-07T14:35:04;15.90;90.00
7530;DHT22;3806;52.270;10.544;2023-05-07T14:37:30;15.90;90.00
7530;DHT22;3806;52.270;10.544;2023-05-07T14:39:55;15.80;90.50
7530;DHT22;3806;52.270;10.544;2023-05-07T14:42:22;15.80;90.70
7530;DHT22;3806;52.270;10.544;2023-05-07T14:44:47;15.80;90.30
7530;DHT22;3806;52.270;10.544;2023-05-07T14:47:14;15.70;90.30
7530;DHT22;3806;52.270;10.544;2023-05-07T14:49:40;15.60;90.40
7530;DHT22;3806;52.270;10.544;2023-05-07T14:52:06;15.60;91.10
7530;DHT22;3806;52.270;10.544;2023-05-07T14:54:34;15.60;91.40
7530;DHT22;3806;52.270;10.544;2023-05-07T14:57:01;15.70;90.70
7530;DHT22;3806;52.270;10.544;2023-05-07T14:59:26;15.50;90.50
7530;DHT22;3806;52.270;10.544;2023-05-07T15:01:52;15.40;90.70
7530;DHT22;3806;52.270;10.544;2023-05-07T15:04:18;15.30;90.90
7530;DHT22;3806;52.270;10.544;2023-05-07T15:06:45;15.20;91.40
7530;DHT22;3806;52.270;10.544;2023-05-07T15:09:11;15.10;91.70
7530;DHT22;3806;52.270;10.544;2023-05-07T15:11:37;15.10;92.00
7530;DHT22;3806;52.270;10.544;2023-05-07T15:14:03;15.20;92.20
7530;DHT22;3806;52.270;10.544;2023-05-07T15:16:28;15.30;92.30
7530;DHT22;3806;52.270;10.544;2023-05-07T15:18:54;15.40;91.40
7530;DHT22;3806;52.270;10.544;2023-05-07T15:21:20;15.20;91.00
7530;DHT22;3806;52.270;10.544;2023-05-07T15:23:45;15.20;91.40
7530;DHT22;3806;52.270;10.544;2023-05-07T15:26:11;15.10;91.30
7530;DHT22;3806;52.270;10.544;2023-05-07T15:28:36;15.10;91.30
7530;DHT22;3806;52.270;10.544;2023-05-07T15:31:03;15.10;91.20
7530;DHT22;3806;52.270;10.544;2023-05-07T15:33:29;15.10;91.50
7530;DHT22;3806;52.270;10.544;2023-05-07T15:35:55;15.10;91.20
7530;DHT22;3806;52.270;10.544;2023-05-07T15:38:24;15.20;91.00
7530;DHT22;3806;52.270;10.544;2023-05-07T15:40:50;15.00;91.20
7530;DHT22;3806;52.270;10.544;2023-05-07T15:43:16;15.00;91.70
7530;DHT22;3806;52.270;10.544;2023-05-07T15:45:42;15.00;91.90
7530;DHT22;3806;52.270;10.544;2023-05-07T15:48:09;14.90;92.10
7530;DHT22;3806;52.270;10.544;2023-05-07T15:50:36;14.90;92.40
7530;DHT22;3806;52.270;10.544;2023-05-07T15:53:03;14.80;93.00
7530;DHT22;3806;52.270;10.544;2023-05-07T15:55:30;14.80;93.10
7530;DHT22;3806;52.270;10.544;2023-05-07T15:57:56;14.70;93.10